CFX8 weather

Chestermere (Kirkby Field) Airport
Chestermere, Alberta, Canada

Public forecast

Using degrees Celsius for public forecast. Weather courtesy of forecast.io.

METAR (pilot weather report)

Closest report is Calgary International Airport, 11.0 nm (20.4 km) WNW. Retrieved 2019/06/17 08:00 UTC (50 seconds ago):

CYYC 170800Z 13007KT 15SM FEW120 13/08 A3005 RMK AC1 AC TR SLP177 DENSITY ALT 4100FT

TAF (pilot weather forecast)

Closest forecast is Calgary International Airport, 11.0 nm (20.4 km) WNW. Retrieved 2019/06/17 09:42 UTC (0 seconds ago):

TAF CYYC 170838Z 1709/1806 12008KT P6SM FEW120 SCT250 FM171600 16010KT P6SM SCT250 FM172200 18012KT P6SM SCT080 SCT150 BKN250 PROB40 1722/1802 VRB20G30KT 4SM TSRA BKN080CB FM180200 18010KT P6SM SCT100 SCT250 RMK NXT FCST BY 171200Z